createdAt,value
2023-09-03T00:02:08.383Z,33.68
2023-09-03T00:04:34.915Z,33.11
2023-09-03T00:07:01.444Z,32.93
2023-09-03T00:09:27.994Z,32.91
2023-09-03T00:11:54.581Z,32.36
2023-09-03T00:14:21.597Z,31.91
2023-09-03T00:16:48.156Z,31.59
2023-09-03T00:19:14.769Z,31.35
2023-09-03T00:21:41.304Z,34.38
2023-09-03T00:24:07.936Z,33.89
2023-09-03T00:26:34.550Z,32.94
2023-09-03T00:29:01.160Z,32.45
2023-09-03T00:31:28.221Z,32.31
2023-09-03T00:33:55.017Z,32.28
2023-09-03T00:36:21.800Z,31.88
2023-09-03T00:38:51.453Z,31.43
2023-09-03T00:41:18.084Z,30.90
2023-09-03T00:43:44.700Z,33.78
2023-09-03T00:46:11.398Z,33.41
2023-09-03T00:48:38.010Z,32.83
2023-09-03T00:51:06.401Z,32.05
2023-09-03T00:53:32.929Z,31.94
2023-09-03T00:55:59.527Z,32.00
2023-09-03T00:58:26.194Z,31.63
2023-09-03T01:00:52.694Z,31.23
2023-09-03T01:03:19.425Z,30.97
2023-09-03T01:05:46.063Z,31.45
2023-09-03T01:08:12.639Z,33.04
2023-09-03T01:10:40.784Z,32.90
2023-09-03T01:13:15.978Z,31.96
2023-09-03T01:15:44.501Z,32.15
2023-09-03T01:18:15.412Z,31.83
2023-09-03T01:21:00.826Z,31.46
2023-09-03T01:23:33.513Z,30.97
2023-09-03T01:26:06.287Z,30.80
2023-09-03T01:28:33.193Z,31.41
2023-09-03T01:31:03.366Z,33.80
2023-09-03T01:33:30.908Z,32.95
2023-09-03T01:35:58.517Z,32.30
2023-09-03T01:38:25.140Z,31.84
2023-09-03T01:40:52.045Z,31.80
2023-09-03T01:43:18.603Z,31.59
2023-09-03T01:46:03.868Z,31.47
2023-09-03T01:48:39.753Z,31.10
2023-09-03T01:51:25.292Z,30.66
2023-09-03T01:53:57.094Z,31.04
2023-09-03T01:56:24.168Z,33.26
2023-09-03T01:58:51.197Z,32.16
2023-09-03T02:01:17.724Z,31.67
2023-09-03T02:03:44.475Z,31.56
2023-09-03T02:06:11.099Z,31.43
2023-09-03T02:08:37.663Z,31.21
2023-09-03T02:11:04.206Z,30.72
2023-09-03T02:13:30.780Z,30.49
2023-09-03T02:15:57.677Z,31.99
2023-09-03T02:18:24.216Z,33.63
2023-09-03T02:20:50.808Z,33.65
2023-09-03T02:23:17.302Z,32.64
2023-09-03T02:25:43.859Z,33.55
2023-09-03T02:28:10.514Z,35.70
2023-09-03T02:30:37.085Z,37.92
2023-09-03T02:33:03.764Z,40.27
2023-09-03T02:35:30.333Z,40.74
2023-09-03T02:37:56.901Z,40.61
2023-09-03T02:40:23.418Z,40.69
2023-09-03T02:42:49.955Z,41.09
2023-09-03T02:45:16.529Z,40.78
2023-09-03T02:47:43.126Z,40.40
2023-09-03T02:50:09.792Z,40.75
2023-09-03T02:52:36.441Z,41.36
2023-09-03T02:55:02.954Z,41.21
2023-09-03T02:57:29.505Z,41.30
2023-09-03T02:59:56.025Z,41.18
2023-09-03T03:02:22.525Z,41.11
2023-09-03T03:04:49.047Z,40.70
2023-09-03T03:07:15.583Z,41.26
2023-09-03T03:09:42.131Z,41.10
2023-09-03T03:12:08.665Z,41.18
2023-09-03T03:14:35.259Z,40.38
2023-09-03T03:17:01.752Z,40.29
2023-09-03T03:19:28.318Z,40.07
2023-09-03T03:21:54.894Z,40.55
2023-09-03T03:24:22.128Z,40.28
2023-09-03T03:26:48.795Z,40.08
2023-09-03T03:29:15.320Z,39.96
2023-09-03T03:31:43.206Z,40.13
2023-09-03T03:34:09.936Z,39.96
2023-09-03T03:36:36.598Z,40.15
2023-09-03T03:39:03.219Z,39.85
2023-09-03T03:41:29.762Z,40.33
2023-09-03T03:43:56.305Z,40.35
2023-09-03T03:46:22.942Z,39.92
2023-09-03T03:48:49.655Z,40.19
2023-09-03T03:51:16.246Z,39.94
2023-09-03T03:53:42.863Z,40.19
2023-09-03T03:56:10.112Z,39.99
2023-09-03T03:58:37.447Z,40.34
2023-09-03T04:01:17.960Z,40.04
2023-09-03T04:03:45.209Z,40.20
2023-09-03T04:06:11.805Z,37.37
2023-09-03T04:08:38.773Z,38.06
2023-09-03T04:11:06.265Z,35.29
2023-09-03T04:13:32.746Z,34.08
2023-09-03T04:15:59.478Z,33.75
2023-09-03T04:18:26.501Z,33.19
2023-09-03T04:20:56.729Z,32.87
2023-09-03T04:23:23.916Z,32.64
2023-09-03T04:25:50.576Z,32.47
2023-09-03T04:28:17.176Z,32.29
2023-09-03T04:30:43.905Z,31.96
2023-09-03T04:33:10.571Z,32.23
2023-09-03T04:35:37.254Z,34.38
2023-09-03T04:38:03.944Z,34.03
2023-09-03T04:40:36.707Z,32.78
2023-09-03T04:43:03.413Z,32.41
2023-09-03T04:45:29.977Z,32.29
2023-09-03T04:47:57.344Z,31.68
2023-09-03T04:50:24.368Z,31.47
2023-09-03T04:52:50.904Z,31.08
2023-09-03T04:55:17.460Z,34.59
2023-09-03T04:57:43.960Z,34.27
2023-09-03T05:00:11.612Z,33.61
2023-09-03T05:02:38.261Z,32.34
2023-09-03T05:05:05.282Z,33.37
2023-09-03T05:07:31.829Z,32.41
2023-09-03T05:09:58.499Z,31.60
2023-09-03T05:12:28.531Z,31.19
2023-09-03T05:14:55.140Z,34.02
2023-09-03T05:17:22.091Z,34.05
2023-09-03T05:19:49.553Z,32.58
2023-09-03T05:22:16.296Z,32.06
2023-09-03T05:24:43.190Z,32.02
2023-09-03T05:27:09.980Z,31.56
2023-09-03T05:29:36.519Z,31.16
2023-09-03T05:32:03.566Z,33.10
2023-09-03T05:34:30.187Z,34.15
2023-09-03T05:36:56.748Z,33.54
2023-09-03T05:39:23.380Z,32.49
2023-09-03T05:41:49.978Z,32.13
2023-09-03T05:44:17.343Z,32.06
2023-09-03T05:46:44.478Z,31.54
2023-09-03T05:49:10.975Z,31.48
2023-09-03T05:51:37.919Z,31.05
2023-09-03T05:54:04.920Z,33.94
2023-09-03T05:56:31.525Z,34.14
2023-09-03T05:59:03.887Z,32.62
2023-09-03T06:01:30.561Z,32.21
2023-09-03T06:03:57.143Z,31.82
2023-09-03T06:06:23.770Z,31.57
2023-09-03T06:08:50.314Z,31.33
2023-09-03T06:11:16.835Z,34.84
2023-09-03T06:13:43.512Z,34.39
2023-09-03T06:16:10.134Z,33.60
2023-09-03T06:18:36.837Z,32.40
2023-09-03T06:21:03.538Z,32.27
2023-09-03T06:23:30.071Z,32.32
2023-09-03T06:25:56.629Z,32.12
2023-09-03T06:28:24.598Z,31.76
2023-09-03T06:30:53.600Z,31.47
2023-09-03T06:33:20.314Z,33.95
2023-09-03T06:35:46.988Z,34.17
2023-09-03T06:38:13.535Z,32.80
2023-09-03T06:40:40.065Z,32.68
2023-09-03T06:43:06.601Z,32.05
2023-09-03T06:45:33.267Z,32.07
2023-09-03T06:47:59.860Z,31.43
2023-09-03T06:50:26.472Z,35.40
2023-09-03T06:52:53.020Z,34.47
2023-09-03T06:55:20.970Z,32.75
2023-09-03T06:57:47.488Z,32.37
2023-09-03T07:00:14.430Z,32.22
2023-09-03T07:02:40.996Z,31.98
2023-09-03T07:05:07.867Z,31.67
2023-09-03T07:07:35.260Z,31.12
2023-09-03T07:10:02.029Z,34.28
2023-09-03T07:12:28.615Z,34.18
2023-09-03T07:14:55.118Z,33.28
2023-09-03T07:17:21.673Z,32.73
2023-09-03T07:19:48.224Z,32.35
2023-09-03T07:22:14.804Z,32.34
2023-09-03T07:24:41.353Z,31.83
2023-09-03T07:27:07.884Z,31.25
2023-09-03T07:29:34.497Z,34.80
2023-09-03T07:32:01.200Z,34.03
2023-09-03T07:34:27.941Z,32.55
2023-09-03T07:36:54.547Z,32.37
2023-09-03T07:39:21.057Z,32.13
2023-09-03T07:41:47.658Z,32.07
2023-09-03T07:44:14.207Z,31.60
2023-09-03T07:46:40.799Z,31.36
2023-09-03T07:49:07.323Z,33.98
2023-09-03T07:51:33.844Z,33.52
2023-09-03T07:54:00.313Z,32.36
2023-09-03T07:56:26.908Z,31.87
2023-09-03T07:58:53.440Z,31.63
2023-09-03T08:01:20.911Z,31.45
2023-09-03T08:03:47.629Z,31.49
2023-09-03T08:06:15.225Z,35.20
2023-09-03T08:08:42.001Z,33.79
2023-09-03T08:11:08.517Z,32.45
2023-09-03T08:13:36.273Z,31.86
2023-09-03T08:16:03.440Z,31.71
2023-09-03T08:18:30.053Z,31.41
2023-09-03T08:20:56.552Z,31.11
2023-09-03T08:23:23.376Z,30.81
2023-09-03T08:25:50.269Z,32.45
2023-09-03T08:28:16.750Z,33.59
2023-09-03T08:30:43.354Z,32.96
2023-09-03T08:33:09.955Z,32.13
2023-09-03T08:35:37.497Z,32.12
2023-09-03T08:38:05.113Z,31.95
2023-09-03T08:40:34.015Z,31.27
2023-09-03T08:43:00.657Z,31.02
2023-09-03T08:45:27.292Z,34.14
2023-09-03T08:47:55.128Z,34.29
2023-09-03T08:50:21.727Z,32.83
2023-09-03T08:52:48.307Z,32.00
2023-09-03T08:55:15.022Z,31.86
2023-09-03T08:57:41.746Z,31.77
2023-09-03T09:00:08.829Z,31.27
2023-09-03T09:02:35.619Z,31.49
2023-09-03T09:05:06.218Z,34.13
2023-09-03T09:07:33.126Z,33.34
2023-09-03T09:10:02.650Z,32.26
2023-09-03T09:12:34.799Z,31.96
2023-09-03T09:15:01.978Z,31.80
2023-09-03T09:17:31.258Z,31.48
2023-09-03T09:19:58.362Z,31.25
2023-09-03T09:22:26.675Z,33.86
2023-09-03T09:24:53.453Z,34.00
2023-09-03T09:27:20.673Z,32.44
2023-09-03T09:29:47.316Z,31.96
2023-09-03T09:32:17.475Z,32.02
2023-09-03T09:34:44.476Z,31.69
2023-09-03T09:37:11.119Z,31.22
2023-09-03T09:39:50.084Z,30.97
2023-09-03T09:42:20.020Z,34.99
2023-09-03T09:44:55.890Z,33.31
2023-09-03T09:47:22.773Z,32.36
2023-09-03T09:49:49.547Z,31.92
2023-09-03T09:52:16.271Z,31.83
2023-09-03T09:54:43.065Z,31.31
2023-09-03T09:57:15.330Z,31.03
2023-09-03T09:59:45.154Z,31.03
2023-09-03T10:02:13.798Z,33.27
2023-09-03T10:04:42.758Z,32.76
2023-09-03T10:07:09.436Z,31.76
2023-09-03T10:09:38.695Z,31.66
2023-09-03T10:12:05.843Z,31.38
2023-09-03T10:14:32.544Z,30.98
2023-09-03T10:17:02.806Z,30.77
2023-09-03T10:19:29.687Z,33.67
2023-09-03T10:21:56.566Z,33.00
2023-09-03T10:24:23.440Z,32.00
2023-09-03T10:26:52.175Z,31.48
2023-09-03T10:29:20.900Z,31.32
2023-09-03T10:31:47.777Z,31.27
2023-09-03T10:34:14.513Z,30.96
2023-09-03T10:37:01.016Z,30.66
2023-09-03T10:39:27.524Z,33.25
2023-09-03T10:42:12.928Z,32.82
2023-09-03T10:44:42.074Z,31.59
2023-09-03T10:47:08.930Z,31.39
2023-09-03T10:49:45.162Z,31.24
2023-09-03T10:52:27.318Z,31.18
2023-09-03T10:55:23.242Z,30.59
2023-09-03T10:58:08.213Z,33.01
2023-09-03T11:00:34.957Z,32.83
2023-09-03T11:03:28.074Z,31.87
2023-09-03T11:06:13.313Z,31.33
2023-09-03T11:08:40.863Z,31.05
2023-09-03T11:11:07.488Z,30.80
2023-09-03T11:13:39.049Z,30.62
2023-09-03T11:16:06.402Z,32.81
2023-09-03T11:18:34.224Z,33.06
2023-09-03T11:21:01.176Z,32.09
2023-09-03T11:23:32.595Z,31.79
2023-09-03T11:26:01.900Z,31.51
2023-09-03T11:28:28.467Z,30.95
2023-09-03T11:30:59.466Z,30.60
2023-09-03T11:33:26.531Z,34.25
2023-09-03T11:35:54.973Z,32.68
2023-09-03T11:38:26.064Z,32.09
2023-09-03T11:41:00.342Z,31.39
2023-09-03T11:43:27.843Z,31.23
2023-09-03T11:45:57.229Z,31.46
2023-09-03T11:48:24.347Z,30.97
2023-09-03T11:50:51.377Z,30.78
2023-09-03T11:53:17.968Z,30.54
2023-09-03T11:55:45.618Z,33.26
2023-09-03T11:58:13.128Z,32.75
2023-09-03T12:00:39.772Z,31.53
2023-09-03T12:03:06.554Z,31.58
2023-09-03T12:05:33.676Z,31.32
2023-09-03T12:08:01.708Z,31.30
2023-09-03T12:10:28.193Z,30.91
2023-09-03T12:12:54.775Z,30.77
2023-09-03T12:15:21.706Z,30.59
2023-09-03T12:17:48.400Z,33.12
2023-09-03T12:20:33.652Z,33.08
2023-09-03T12:23:15.954Z,32.17
2023-09-03T12:25:42.795Z,31.72
2023-09-03T12:28:09.595Z,31.79
2023-09-03T12:30:55.735Z,31.72
2023-09-03T12:33:22.407Z,30.88
2023-09-03T12:36:08.170Z,31.74
2023-09-03T12:38:54.391Z,33.04
2023-09-03T12:41:21.565Z,32.63
2023-09-03T12:43:48.176Z,31.94
2023-09-03T12:46:14.800Z,32.11
2023-09-03T12:48:42.395Z,31.59
2023-09-03T12:51:10.811Z,31.08
2023-09-03T12:53:37.463Z,31.15
2023-09-03T12:56:04.160Z,33.48
2023-09-03T12:58:30.751Z,33.46
2023-09-03T13:00:57.284Z,32.07
2023-09-03T13:03:24.122Z,31.90
2023-09-03T13:05:51.446Z,31.62
2023-09-03T13:08:18.046Z,31.55
2023-09-03T13:10:44.630Z,31.16
2023-09-03T13:13:13.240Z,30.79
2023-09-03T13:15:40.527Z,30.84
2023-09-03T13:18:07.473Z,33.24
2023-09-03T13:20:34.621Z,33.13
2023-09-03T13:23:01.188Z,31.91
2023-09-03T13:25:34.951Z,31.96
2023-09-03T13:28:02.302Z,31.76
2023-09-03T13:30:28.800Z,31.66
2023-09-03T13:32:55.634Z,31.51
2023-09-03T13:35:23.438Z,31.04
2023-09-03T13:37:50.167Z,30.87
2023-09-03T13:40:16.742Z,33.38
2023-09-03T13:42:43.303Z,32.62
2023-09-03T13:45:10.028Z,32.32
2023-09-03T13:47:36.658Z,31.66
2023-09-03T13:50:03.304Z,31.73
2023-09-03T13:52:29.892Z,31.80
2023-09-03T13:54:56.479Z,31.12
2023-09-03T13:57:22.977Z,30.85
2023-09-03T13:59:49.565Z,30.68
2023-09-03T14:02:16.259Z,33.54
2023-09-03T14:04:47.416Z,33.07
2023-09-03T14:07:15.299Z,32.23
2023-09-03T14:09:41.847Z,31.67
2023-09-03T14:12:08.722Z,31.69
2023-09-03T14:14:35.578Z,31.58
2023-09-03T14:17:02.092Z,31.33
2023-09-03T14:19:28.737Z,31.76
2023-09-03T14:21:55.246Z,33.29
2023-09-03T14:24:21.773Z,33.22
2023-09-03T14:26:48.333Z,32.06
2023-09-03T14:29:15.759Z,31.90
2023-09-03T14:31:43.699Z,31.38
2023-09-03T14:34:10.317Z,31.42
2023-09-03T14:36:36.836Z,31.08
2023-09-03T14:39:03.449Z,30.87
2023-09-03T14:41:29.986Z,33.18
2023-09-03T14:43:56.527Z,32.72
2023-09-03T14:46:23.147Z,32.45
2023-09-03T14:48:49.803Z,31.92
2023-09-03T14:51:16.270Z,31.45
2023-09-03T14:53:42.842Z,31.42
2023-09-03T14:56:09.444Z,31.17
2023-09-03T14:58:35.993Z,30.93
2023-09-03T15:01:14.889Z,33.79
2023-09-03T15:03:41.616Z,33.21
2023-09-03T15:06:08.242Z,31.92
2023-09-03T15:08:36.074Z,31.73
2023-09-03T15:11:09.264Z,31.47
2023-09-03T15:13:35.915Z,31.47
2023-09-03T15:16:03.203Z,31.08
2023-09-03T15:18:29.728Z,32.63
2023-09-03T15:20:56.262Z,33.39
2023-09-03T15:23:23.012Z,32.81
2023-09-03T15:25:49.542Z,31.89
2023-09-03T15:28:16.160Z,31.95
2023-09-03T15:30:42.921Z,31.14
2023-09-03T15:33:10.501Z,30.84
2023-09-03T15:35:38.376Z,30.97
2023-09-03T15:38:05.285Z,34.07
2023-09-03T15:40:31.834Z,33.29
2023-09-03T15:42:58.350Z,32.25
2023-09-03T15:45:24.878Z,31.77
2023-09-03T15:47:52.051Z,31.70
2023-09-03T15:50:18.651Z,31.70
2023-09-03T15:52:45.215Z,31.13
2023-09-03T15:55:11.818Z,30.58
2023-09-03T15:57:41.087Z,30.53
2023-09-03T16:00:08.350Z,33.07
2023-09-03T16:02:34.869Z,32.84
2023-09-03T16:05:01.451Z,32.11
2023-09-03T16:07:27.992Z,31.79
2023-09-03T16:09:54.578Z,31.85
2023-09-03T16:12:21.091Z,31.53
2023-09-03T16:14:47.600Z,31.32
2023-09-03T16:17:14.118Z,30.92
2023-09-03T16:19:40.704Z,31.01
2023-09-03T16:22:07.312Z,32.69
2023-09-03T16:24:33.910Z,32.71
2023-09-03T16:27:00.444Z,31.92
2023-09-03T16:29:27.193Z,31.62
2023-09-03T16:31:54.644Z,31.72
2023-09-03T16:34:21.244Z,31.16
2023-09-03T16:36:48.093Z,30.81
2023-09-03T16:39:14.587Z,30.59
2023-09-03T16:41:41.251Z,31.99
2023-09-03T16:44:07.754Z,33.09
2023-09-03T16:46:34.335Z,32.36
2023-09-03T16:49:00.908Z,31.77
2023-09-03T16:51:28.429Z,31.86
2023-09-03T16:53:54.930Z,31.62
2023-09-03T16:56:21.506Z,31.53
2023-09-03T16:58:48.038Z,31.22
2023-09-03T17:01:14.665Z,30.70
2023-09-03T17:03:41.185Z,34.24
2023-09-03T17:06:07.793Z,33.18
2023-09-03T17:08:34.378Z,32.44
2023-09-03T17:11:01.939Z,31.92
2023-09-03T17:13:28.531Z,31.93
2023-09-03T17:15:55.600Z,31.60
2023-09-03T17:18:22.315Z,31.33
2023-09-03T17:20:49.154Z,31.26
2023-09-03T17:23:15.796Z,30.95
2023-09-03T17:25:42.396Z,33.91
2023-09-03T17:28:09.443Z,32.96
2023-09-03T17:30:36.078Z,32.26
2023-09-03T17:33:02.967Z,31.98
2023-09-03T17:35:29.626Z,31.67
2023-09-03T17:37:56.106Z,31.49
2023-09-03T17:40:22.660Z,31.09
2023-09-03T17:42:49.175Z,30.99
2023-09-03T17:45:15.740Z,30.61
2023-09-03T17:47:44.162Z,33.49
2023-09-03T17:50:10.961Z,32.90
2023-09-03T17:52:37.573Z,32.07
2023-09-03T17:55:04.343Z,31.83
2023-09-03T17:57:34.641Z,31.59
2023-09-03T18:00:01.547Z,31.54
2023-09-03T18:02:28.165Z,31.35
2023-09-03T18:04:54.952Z,30.95
2023-09-03T18:07:21.506Z,30.46
2023-09-03T18:09:48.076Z,33.79
2023-09-03T18:12:14.614Z,33.05
2023-09-03T18:14:41.186Z,32.35
2023-09-03T18:17:07.700Z,31.94
2023-09-03T18:19:34.216Z,31.41
2023-09-03T18:22:00.766Z,31.63
2023-09-03T18:24:27.322Z,31.07
2023-09-03T18:26:53.894Z,30.93
2023-09-03T18:29:20.389Z,32.78
2023-09-03T18:31:46.917Z,33.98
2023-09-03T18:34:13.469Z,32.24
2023-09-03T18:36:42.047Z,33.04
2023-09-03T18:39:08.560Z,35.52
2023-09-03T18:41:35.030Z,37.78
2023-09-03T18:44:01.504Z,39.32
2023-09-03T18:46:28.043Z,40.39
2023-09-03T18:48:57.055Z,40.92
2023-09-03T18:51:23.557Z,41.25
2023-09-03T18:53:50.129Z,40.68
2023-09-03T18:56:16.649Z,41.13
2023-09-03T18:58:43.846Z,41.19
2023-09-03T19:01:10.709Z,41.08
2023-09-03T19:03:37.409Z,41.19
2023-09-03T19:06:05.703Z,41.26
2023-09-03T19:08:32.272Z,41.07
2023-09-03T19:10:59.381Z,41.31
2023-09-03T19:13:26.171Z,41.44
2023-09-03T19:15:55.120Z,41.18
2023-09-03T19:18:24.356Z,41.12
2023-09-03T19:20:51.838Z,40.92
2023-09-03T19:23:18.393Z,41.02
2023-09-03T19:25:45.522Z,40.53
2023-09-03T19:28:16.330Z,40.08
2023-09-03T19:30:43.146Z,39.88
2023-09-03T19:33:11.723Z,39.55
2023-09-03T19:35:38.620Z,39.88
2023-09-03T19:38:05.432Z,39.61
2023-09-03T19:40:32.412Z,39.89
2023-09-03T19:42:59.057Z,39.93
2023-09-03T19:45:25.605Z,39.91
2023-09-03T19:47:53.170Z,40.10
2023-09-03T19:50:19.907Z,39.99
2023-09-03T19:52:46.805Z,40.01
2023-09-03T19:55:13.465Z,37.35
2023-09-03T19:57:40.211Z,38.29
2023-09-03T20:00:10.266Z,34.45
2023-09-03T20:02:36.860Z,33.60
2023-09-03T20:05:03.464Z,33.45
2023-09-03T20:07:30.320Z,33.39
2023-09-03T20:09:56.872Z,32.77
2023-09-03T20:12:23.410Z,32.43
2023-09-03T20:14:50.044Z,32.50
2023-09-03T20:17:16.580Z,32.11
2023-09-03T20:19:45.649Z,31.69
2023-09-03T20:22:12.232Z,31.59
2023-09-03T20:24:38.722Z,34.06
2023-09-03T20:27:07.500Z,32.91
2023-09-03T20:29:34.055Z,32.45
2023-09-03T20:32:00.536Z,32.23
2023-09-03T20:34:26.999Z,32.13
2023-09-03T20:36:53.488Z,31.77
2023-09-03T20:39:20.113Z,31.72
2023-09-03T20:41:46.604Z,31.50
2023-09-03T20:44:13.061Z,32.92
2023-09-03T20:46:39.658Z,33.44
2023-09-03T20:49:06.134Z,32.98
2023-09-03T20:51:32.657Z,32.23
2023-09-03T20:53:59.173Z,32.18
2023-09-03T20:56:25.754Z,31.81
2023-09-03T20:58:52.400Z,31.78
2023-09-03T21:01:19.713Z,31.90
2023-09-03T21:03:46.261Z,31.04
2023-09-03T21:06:12.827Z,30.90
2023-09-03T21:08:39.404Z,32.98
2023-09-03T21:11:05.945Z,32.97
2023-09-03T21:13:33.272Z,32.14
2023-09-03T21:15:59.893Z,31.73
2023-09-03T21:18:27.020Z,32.08
2023-09-03T21:20:55.828Z,31.52
2023-09-03T21:23:22.613Z,31.34
2023-09-03T21:25:49.464Z,30.93
2023-09-03T21:28:16.020Z,30.40
2023-09-03T21:30:42.537Z,32.96
2023-09-03T21:33:09.072Z,32.91
2023-09-03T21:35:42.161Z,32.17
2023-09-03T21:38:08.808Z,31.98
2023-09-03T21:40:35.959Z,31.89
2023-09-03T21:43:03.228Z,31.42
2023-09-03T21:45:30.055Z,31.28
2023-09-03T21:47:56.675Z,31.20
2023-09-03T21:50:23.269Z,30.33
2023-09-03T21:52:50.010Z,32.60
2023-09-03T21:55:16.598Z,32.90
2023-09-03T21:57:43.145Z,32.77
2023-09-03T22:00:11.477Z,32.12
2023-09-03T22:02:42.089Z,31.90
2023-09-03T22:05:09.699Z,31.50
2023-09-03T22:07:36.571Z,31.29
2023-09-03T22:10:03.121Z,30.96
2023-09-03T22:12:29.659Z,30.91
2023-09-03T22:14:56.250Z,31.87
2023-09-03T22:17:22.797Z,33.55
2023-09-03T22:19:51.795Z,32.11
2023-09-03T22:22:18.341Z,31.79
2023-09-03T22:24:44.869Z,31.68
2023-09-03T22:27:11.431Z,31.91
2023-09-03T22:29:37.965Z,31.37
2023-09-03T22:32:05.191Z,31.00
2023-09-03T22:34:31.764Z,30.86
2023-09-03T22:36:58.355Z,30.65
2023-09-03T22:39:24.876Z,32.91
2023-09-03T22:41:51.456Z,32.61
2023-09-03T22:44:17.940Z,31.88
2023-09-03T22:46:44.478Z,31.63
2023-09-03T22:49:11.016Z,31.77
2023-09-03T22:51:37.521Z,31.00
2023-09-03T22:54:04.138Z,30.92
2023-09-03T22:56:30.753Z,30.75
2023-09-03T22:58:57.226Z,31.98
2023-09-03T23:01:23.820Z,32.85
2023-09-03T23:03:50.479Z,33.53
2023-09-03T23:06:17.416Z,32.80
2023-09-03T23:08:44.005Z,33.77
2023-09-03T23:11:10.527Z,35.85
2023-09-03T23:13:37.070Z,38.54
2023-09-03T23:16:03.629Z,39.81
2023-09-03T23:18:33.367Z,40.44
2023-09-03T23:21:00.909Z,40.61
2023-09-03T23:23:28.051Z,40.18
2023-09-03T23:25:54.541Z,40.24
2023-09-03T23:28:21.560Z,40.59
2023-09-03T23:30:48.583Z,40.56
2023-09-03T23:33:15.198Z,41.28
2023-09-03T23:35:41.844Z,41.19
2023-09-03T23:38:08.407Z,41.09
2023-09-03T23:40:34.896Z,41.07
2023-09-03T23:43:01.429Z,41.51
2023-09-03T23:45:27.931Z,41.14
2023-09-03T23:47:54.509Z,41.46
2023-09-03T23:50:21.196Z,41.38
2023-09-03T23:52:47.789Z,41.28
2023-09-03T23:55:14.294Z,41.22
2023-09-03T23:57:40.881Z,40.71
